createdAt,value
2023-01-30T00:01:19.465Z,49.83
2023-01-30T00:03:48.549Z,50.10
2023-01-30T00:06:17.298Z,55.67
2023-01-30T00:08:47.603Z,52.40
2023-01-30T00:11:17.716Z,52.20
2023-01-30T00:13:46.864Z,47.63
2023-01-30T00:16:15.630Z,47.73
2023-01-30T00:18:44.536Z,53.03
2023-01-30T00:21:14.578Z,49.77
2023-01-30T00:23:43.487Z,47.57
2023-01-30T00:26:14.251Z,50.53
2023-01-30T00:28:43.973Z,49.27
2023-01-30T00:31:12.469Z,49.60
2023-01-30T00:33:40.900Z,51.13
2023-01-30T00:36:11.113Z,49.30
2023-01-30T00:38:39.533Z,52.60
2023-01-30T00:41:10.844Z,47.20
2023-01-30T00:43:58.147Z,55.47
2023-01-30T00:46:49.542Z,49.10
2023-01-30T00:49:18.304Z,47.77
2023-01-30T00:51:46.968Z,54.77
2023-01-30T00:54:15.413Z,53.10
2023-01-30T00:56:43.846Z,46.60
2023-01-30T00:59:13.721Z,50.50
2023-01-30T01:01:42.252Z,48.23
2023-01-30T01:04:11.890Z,46.00
2023-01-30T01:06:40.940Z,51.63
2023-01-30T01:09:09.602Z,48.60
2023-01-30T01:11:38.497Z,53.23
2023-01-30T01:14:08.611Z,50.27
2023-01-30T01:16:38.564Z,48.37
2023-01-30T01:19:07.298Z,48.47
2023-01-30T01:21:35.787Z,47.50
2023-01-30T01:24:06.957Z,47.67
2023-01-30T01:26:35.441Z,49.33
2023-01-30T01:29:04.728Z,45.00
2023-01-30T01:31:33.348Z,45.87
2023-01-30T01:34:03.380Z,49.80
2023-01-30T01:39:20.093Z,44.77
2023-01-30T01:41:50.145Z,44.97
2023-01-30T01:44:19.052Z,45.80
2023-01-30T01:46:51.976Z,47.33
2023-01-30T01:49:26.189Z,47.93
2023-01-30T01:51:58.457Z,48.60
2023-01-30T01:54:33.466Z,47.17
2023-01-30T01:57:03.976Z,48.07
2023-01-30T01:59:36.602Z,44.27
2023-01-30T02:02:09.142Z,47.83
2023-01-30T02:05:03.511Z,55.77
2023-01-30T02:07:39.505Z,51.83
2023-01-30T02:10:12.553Z,53.50
2023-01-30T02:12:42.568Z,47.17
2023-01-30T02:15:11.822Z,44.30
2023-01-30T02:17:42.348Z,49.97
2023-01-30T02:20:31.243Z,44.80
2023-01-30T02:23:31.068Z,47.50
2023-01-30T02:26:26.084Z,40.80
2023-01-30T02:29:38.307Z,44.00
2023-01-30T02:32:15.478Z,42.13
2023-01-30T02:34:54.405Z,42.80
2023-01-30T02:37:36.537Z,47.23
2023-01-30T02:40:17.894Z,45.70
2023-01-30T02:42:59.270Z,49.43
2023-01-30T02:45:35.206Z,47.30
2023-01-30T02:48:07.562Z,41.77
2023-01-30T02:50:41.796Z,45.97
2023-01-30T02:53:10.651Z,47.07
2023-01-30T02:55:42.511Z,50.57
2023-01-30T02:58:12.225Z,48.63
2023-01-30T03:01:03.859Z,44.60
2023-01-30T03:03:50.660Z,46.63
2023-01-30T03:06:34.470Z,44.53
2023-01-30T03:09:14.668Z,47.87
2023-01-30T03:11:49.097Z,44.57
2023-01-30T03:14:25.436Z,46.10
2023-01-30T03:16:57.703Z,47.23
2023-01-30T03:19:30.030Z,46.77
2023-01-30T03:21:58.501Z,48.77
2023-01-30T03:24:27.617Z,46.97
2023-01-30T03:27:03.194Z,43.77
2023-01-30T03:29:32.005Z,48.50
2023-01-30T03:32:00.556Z,49.70
2023-01-30T03:34:30.716Z,43.63
2023-01-30T03:36:59.405Z,49.33
2023-01-30T03:39:28.432Z,52.33
2023-01-30T03:41:57.923Z,45.80
2023-01-30T03:44:26.409Z,46.70
2023-01-30T03:46:54.961Z,45.13
2023-01-30T03:49:24.865Z,49.83
2023-01-30T03:51:55.610Z,53.57
2023-01-30T03:54:24.134Z,51.37
2023-01-30T03:56:52.565Z,55.33
2023-01-30T03:59:21.069Z,55.33
2023-01-30T04:01:55.839Z,60.27
2023-01-30T04:04:24.915Z,45.33
2023-01-30T04:06:54.788Z,50.87
2023-01-30T04:09:23.337Z,51.90
2023-01-30T04:11:53.875Z,48.10
2023-01-30T04:14:22.461Z,49.43
2023-01-30T04:17:09.729Z,53.80
2023-01-30T04:19:56.600Z,51.77
2023-01-30T04:22:26.840Z,61.70
2023-01-30T04:24:55.367Z,49.67
2023-01-30T04:27:23.866Z,52.27
2023-01-30T04:30:13.050Z,60.63
2023-01-30T04:32:42.336Z,50.87
2023-01-30T04:35:12.466Z,53.37
2023-01-30T04:37:43.728Z,51.10
2023-01-30T04:40:15.505Z,54.30
2023-01-30T04:42:44.144Z,52.17
2023-01-30T04:45:35.637Z,54.27
2023-01-30T04:48:04.554Z,62.83
2023-01-30T04:50:34.178Z,51.63
2023-01-30T04:53:04.194Z,56.60
2023-01-30T04:55:32.755Z,57.40
2023-01-30T04:58:01.401Z,50.93
2023-01-30T05:00:30.084Z,48.83
2023-01-30T05:03:01.738Z,52.70
2023-01-30T05:05:30.156Z,53.73
2023-01-30T05:07:58.571Z,44.60
2023-01-30T05:10:28.380Z,47.47
2023-01-30T05:12:56.889Z,51.10
2023-01-30T05:15:25.314Z,44.03
2023-01-30T05:17:54.136Z,50.60
2023-01-30T05:20:22.696Z,39.10
2023-01-30T05:22:51.097Z,47.00
2023-01-30T05:25:19.817Z,47.10
2023-01-30T05:27:49.919Z,38.10
2023-01-30T05:30:19.021Z,36.43
2023-01-30T05:32:47.399Z,40.33
2023-01-30T05:35:16.170Z,41.00
2023-01-30T05:37:44.814Z,41.07
2023-01-30T05:40:14.656Z,44.27
2023-01-30T05:42:42.951Z,40.30
2023-01-30T05:45:13.266Z,39.40
2023-01-30T05:47:41.808Z,44.50
2023-01-30T05:50:12.028Z,43.43
2023-01-30T05:52:40.455Z,42.13
2023-01-30T05:55:09.709Z,43.57
2023-01-30T05:57:38.064Z,40.23
2023-01-30T06:00:08.129Z,37.07
2023-01-30T06:02:42.805Z,39.87
2023-01-30T06:05:11.596Z,38.80
2023-01-30T06:07:40.148Z,43.17
2023-01-30T06:10:09.204Z,45.90
2023-01-30T06:12:37.662Z,40.60
2023-01-30T06:15:06.956Z,37.67
2023-01-30T06:17:35.544Z,41.67
2023-01-30T06:20:06.546Z,45.97
2023-01-30T06:22:35.507Z,39.17
2023-01-30T06:25:03.895Z,44.70
2023-01-30T06:27:32.475Z,41.90
2023-01-30T06:30:00.952Z,45.23
2023-01-30T06:32:29.659Z,49.20
2023-01-30T06:34:58.350Z,40.77
2023-01-30T06:37:28.561Z,43.93
2023-01-30T06:39:56.941Z,43.47
2023-01-30T06:42:25.405Z,42.93
2023-01-30T06:44:54.116Z,50.57
2023-01-30T06:47:22.456Z,39.67
2023-01-30T06:49:50.892Z,39.43
2023-01-30T06:52:19.517Z,41.17
2023-01-30T06:54:49.466Z,38.47
2023-01-30T06:57:17.851Z,43.20
2023-01-30T06:59:46.472Z,41.97
2023-01-30T07:02:15.623Z,45.10
2023-01-30T07:04:44.227Z,37.33
2023-01-30T07:07:12.900Z,46.73
2023-01-30T07:09:41.663Z,47.00
2023-01-30T07:12:11.538Z,42.37
2023-01-30T07:14:40.221Z,34.57
2023-01-30T07:17:08.822Z,38.17
2023-01-30T07:19:39.133Z,30.30
2023-01-30T07:22:07.640Z,30.93
2023-01-30T07:24:36.334Z,31.67
2023-01-30T07:27:05.051Z,36.43
2023-01-30T07:29:36.337Z,27.77
2023-01-30T07:32:06.274Z,34.10
2023-01-30T07:34:35.019Z,26.37
2023-01-30T07:37:03.430Z,28.00
2023-01-30T07:39:32.157Z,24.07
2023-01-30T07:42:01.941Z,28.50
2023-01-30T07:44:30.411Z,29.80
2023-01-30T07:47:00.354Z,20.87
2023-01-30T07:49:28.958Z,20.80
2023-01-30T07:52:00.280Z,18.07
2023-01-30T07:54:28.755Z,20.73
2023-01-30T07:56:57.306Z,24.60
2023-01-30T07:59:26.017Z,19.97
2023-01-30T08:01:54.487Z,22.27
2023-01-30T08:04:24.841Z,23.20
2023-01-30T08:06:53.632Z,21.93
2023-01-30T08:09:22.163Z,22.47
2023-01-30T08:11:50.837Z,17.10
2023-01-30T08:14:19.419Z,21.20
2023-01-30T08:16:49.157Z,22.93
2023-01-30T08:19:17.709Z,15.50
2023-01-30T08:21:47.694Z,15.50
2023-01-30T08:24:16.521Z,20.13
2023-01-30T08:26:45.332Z,16.57
2023-01-30T08:29:13.959Z,15.97
2023-01-30T08:31:42.555Z,19.77
2023-01-30T08:34:10.942Z,23.27
2023-01-30T08:36:39.425Z,22.97
2023-01-30T08:39:09.431Z,14.30
2023-01-30T08:41:37.929Z,17.97
2023-01-30T08:44:07.023Z,20.90
2023-01-30T08:46:35.588Z,16.67
2023-01-30T08:49:04.208Z,16.77
2023-01-30T08:51:32.664Z,23.00
2023-01-30T08:54:01.105Z,17.13
2023-01-30T08:56:31.221Z,27.17
2023-01-30T08:58:59.787Z,17.13
2023-01-30T09:01:28.393Z,20.80
2023-01-30T09:03:56.917Z,22.93
2023-01-30T09:06:26.353Z,19.63
2023-01-30T09:08:55.047Z,16.77
2023-01-30T09:11:23.732Z,24.27
2023-01-30T09:13:53.547Z,20.77
2023-01-30T09:16:22.055Z,26.90
2023-01-30T09:18:50.888Z,22.80
2023-01-30T09:21:19.533Z,25.43
2023-01-30T09:23:47.909Z,16.23
2023-01-30T09:26:16.409Z,18.83
2023-01-30T09:28:45.068Z,23.53
2023-01-30T09:31:15.156Z,19.23
2023-01-30T09:33:44.282Z,16.37
2023-01-30T09:36:12.902Z,25.37
2023-01-30T09:38:41.368Z,25.67
2023-01-30T09:41:28.464Z,27.23
2023-01-30T09:44:12.205Z,16.83
2023-01-30T09:46:50.163Z,16.33
2023-01-30T09:49:35.294Z,19.93
2023-01-30T09:52:17.815Z,20.03
2023-01-30T09:54:47.435Z,19.37
2023-01-30T09:57:20.886Z,25.90
2023-01-30T09:59:57.444Z,19.73
2023-01-30T10:02:37.251Z,22.17
2023-01-30T10:05:06.755Z,20.40
2023-01-30T10:07:46.429Z,23.10
2023-01-30T10:10:24.389Z,26.93
2023-01-30T10:13:02.229Z,21.17
2023-01-30T10:15:42.236Z,17.97
2023-01-30T10:18:45.582Z,22.57
2023-01-30T10:21:22.504Z,26.27
2023-01-30T10:24:02.135Z,24.40
2023-01-30T10:26:32.357Z,21.40
2023-01-30T10:29:07.603Z,20.07
2023-01-30T10:31:43.695Z,21.10
2023-01-30T10:34:18.479Z,26.47
2023-01-30T10:36:53.025Z,23.77
2023-01-30T10:39:32.606Z,18.37
2023-01-30T10:42:11.787Z,16.97
2023-01-30T10:44:43.073Z,15.97
2023-01-30T10:47:46.276Z,19.83
2023-01-30T10:50:21.954Z,19.70
2023-01-30T10:52:58.603Z,19.37
2023-01-30T10:55:37.627Z,17.57
2023-01-30T10:58:17.524Z,25.03
2023-01-30T11:00:53.493Z,19.47
2023-01-30T11:03:34.773Z,14.17
2023-01-30T11:06:09.524Z,13.03
2023-01-30T11:08:38.375Z,22.37
2023-01-30T11:11:24.999Z,19.63
2023-01-30T11:14:03.018Z,17.83
2023-01-30T11:16:32.591Z,17.90
2023-01-30T11:19:19.521Z,16.90
2023-01-30T11:21:52.727Z,14.93
2023-01-30T11:24:24.076Z,14.10
2023-01-30T11:26:53.726Z,14.47
2023-01-30T11:29:29.137Z,16.43
2023-01-30T11:32:02.889Z,15.13
2023-01-30T11:34:31.709Z,14.40
2023-01-30T11:37:16.686Z,20.93
2023-01-30T11:39:53.587Z,18.53
2023-01-30T11:42:26.850Z,21.87
2023-01-30T11:45:14.855Z,17.53
2023-01-30T11:47:57.668Z,19.53
2023-01-30T11:50:35.323Z,23.87
2023-01-30T11:53:24.184Z,15.50
2023-01-30T11:56:02.949Z,17.60
2023-01-30T11:58:34.651Z,21.43
2023-01-30T12:01:04.273Z,15.77
2023-01-30T12:03:34.624Z,15.57
2023-01-30T12:06:03.271Z,26.40
2023-01-30T12:08:42.079Z,18.70
2023-01-30T12:11:28.919Z,15.90
2023-01-30T12:14:08.317Z,23.03
2023-01-30T12:16:49.632Z,16.17
2023-01-30T12:19:30.867Z,17.57
2023-01-30T12:22:06.778Z,24.53
2023-01-30T12:24:42.295Z,15.87
2023-01-30T12:27:17.648Z,14.93
2023-01-30T12:29:56.143Z,23.10
2023-01-30T12:32:28.380Z,20.83
2023-01-30T12:34:57.567Z,14.67
2023-01-30T12:37:44.334Z,20.67
2023-01-30T12:40:30.721Z,21.40
2023-01-30T12:43:23.921Z,18.27
2023-01-30T12:46:04.329Z,19.00
2023-01-30T12:49:07.809Z,22.30
2023-01-30T12:51:57.181Z,16.07
2023-01-30T12:54:40.853Z,21.37
2023-01-30T12:57:20.716Z,19.80
2023-01-30T13:00:02.919Z,21.47
2023-01-30T13:02:58.670Z,23.37
2023-01-30T13:05:38.816Z,19.20
2023-01-30T13:08:23.616Z,17.63
2023-01-30T13:11:00.331Z,18.17
2023-01-30T13:13:41.072Z,25.20
2023-01-30T13:16:19.677Z,19.47
2023-01-30T13:18:53.964Z,22.73
2023-01-30T13:21:31.296Z,26.93
2023-01-30T13:24:14.548Z,26.57
2023-01-30T13:26:45.641Z,17.57
2023-01-30T13:29:20.781Z,21.00
2023-01-30T13:31:55.095Z,19.03
2023-01-30T13:34:32.682Z,21.13
2023-01-30T13:37:05.112Z,19.10
2023-01-30T13:39:42.273Z,23.70
2023-01-30T13:42:22.036Z,22.20
2023-01-30T13:44:53.749Z,21.40
2023-01-30T13:47:34.188Z,25.73
2023-01-30T13:50:21.163Z,17.43
2023-01-30T13:52:57.410Z,31.83
2023-01-30T13:55:31.395Z,25.87
2023-01-30T13:58:09.688Z,24.53
2023-01-30T14:00:39.681Z,25.50
2023-01-30T14:03:25.517Z,23.07
2023-01-30T14:06:26.422Z,21.37
2023-01-30T14:08:59.535Z,17.30
2023-01-30T14:11:43.432Z,19.17
2023-01-30T14:14:43.941Z,27.40
2023-01-30T14:17:16.633Z,21.27
2023-01-30T14:19:49.838Z,21.03
2023-01-30T14:22:23.371Z,23.67
2023-01-30T14:25:25.176Z,25.87
2023-01-30T14:27:55.640Z,21.83
2023-01-30T14:30:38.705Z,23.90
2023-01-30T14:33:35.533Z,20.17
2023-01-30T14:36:43.920Z,23.33
2023-01-30T14:39:39.158Z,23.17
2023-01-30T14:42:21.283Z,24.83
2023-01-30T14:45:15.833Z,32.50
2023-01-30T14:47:46.841Z,29.13
2023-01-30T14:50:24.021Z,25.73
2023-01-30T14:52:57.701Z,25.27
2023-01-30T14:55:29.795Z,21.77
2023-01-30T14:58:01.110Z,21.47
2023-01-30T15:00:32.590Z,21.13
2023-01-30T15:03:03.541Z,23.03
2023-01-30T15:05:37.710Z,23.73
2023-01-30T15:08:11.364Z,30.33
2023-01-30T15:10:56.956Z,24.03
2023-01-30T15:13:48.588Z,27.83
2023-01-30T15:16:41.989Z,20.00
2023-01-30T15:19:35.744Z,25.07
2023-01-30T15:22:17.824Z,24.17
2023-01-30T15:25:26.299Z,31.73
2023-01-30T15:28:06.389Z,23.33
2023-01-30T15:30:57.238Z,23.20
2023-01-30T15:33:31.929Z,27.00
2023-01-30T15:36:01.226Z,19.20
2023-01-30T15:38:33.683Z,22.90
2023-01-30T15:41:04.310Z,21.57
2023-01-30T15:43:54.866Z,25.10
2023-01-30T15:46:34.396Z,24.93
2023-01-30T15:49:19.241Z,26.13
2023-01-30T15:51:48.119Z,29.17
2023-01-30T15:54:20.029Z,22.47
2023-01-30T15:56:50.210Z,30.43
2023-01-30T15:59:30.469Z,22.50
2023-01-30T16:02:05.706Z,18.97
2023-01-30T16:04:34.247Z,23.37
2023-01-30T16:07:15.819Z,18.83
2023-01-30T16:10:06.773Z,29.27
2023-01-30T16:12:41.009Z,27.37
2023-01-30T16:15:23.784Z,14.40
2023-01-30T16:18:00.120Z,22.13
2023-01-30T16:20:29.468Z,23.57
2023-01-30T16:22:58.556Z,18.33
2023-01-30T16:25:34.589Z,21.63
2023-01-30T16:28:03.144Z,32.23
2023-01-30T16:30:31.790Z,26.30
2023-01-30T16:33:09.409Z,19.97
2023-01-30T16:35:46.012Z,22.60
2023-01-30T16:38:37.639Z,27.57
2023-01-30T16:41:07.637Z,24.90
2023-01-30T16:43:36.161Z,29.27
2023-01-30T16:46:47.223Z,26.63
2023-01-30T16:49:21.505Z,28.80
2023-01-30T16:51:51.838Z,25.13
2023-01-30T16:54:24.809Z,30.67
2023-01-30T16:56:57.724Z,26.23
2023-01-30T16:59:31.474Z,28.17
2023-01-30T17:02:01.241Z,24.37
2023-01-30T17:04:32.532Z,22.83
2023-01-30T17:07:04.275Z,22.03
2023-01-30T17:09:44.585Z,24.50
2023-01-30T17:12:38.277Z,25.00
2023-01-30T17:15:37.128Z,26.27
2023-01-30T17:18:05.888Z,25.80
2023-01-30T17:20:41.247Z,27.10
2023-01-30T17:23:12.868Z,23.90
2023-01-30T17:25:44.260Z,23.33
2023-01-30T17:28:21.460Z,24.10
2023-01-30T17:30:51.127Z,26.63
2023-01-30T17:33:20.258Z,40.20
2023-01-30T17:35:48.874Z,26.67
2023-01-30T17:38:17.340Z,24.23
2023-01-30T17:40:46.214Z,25.63
2023-01-30T17:43:16.254Z,24.90
2023-01-30T17:45:44.846Z,25.17
2023-01-30T17:48:14.298Z,30.93
2023-01-30T17:50:43.013Z,25.13
2023-01-30T17:53:11.580Z,31.37
2023-01-30T17:55:40.545Z,36.47
2023-01-30T17:58:13.292Z,31.93
2023-01-30T18:00:43.262Z,24.23
2023-01-30T18:03:11.826Z,30.00
2023-01-30T18:05:40.320Z,26.27
2023-01-30T18:08:08.830Z,28.77
2023-01-30T18:10:37.458Z,22.60
2023-01-30T18:13:05.950Z,32.07
2023-01-30T18:15:34.678Z,25.97
2023-01-30T18:18:04.617Z,24.23
2023-01-30T18:20:33.139Z,27.67
2023-01-30T18:23:01.721Z,29.03
2023-01-30T18:25:30.117Z,36.27
2023-01-30T18:27:58.614Z,22.90
2023-01-30T18:30:27.053Z,25.80
2023-01-30T18:32:55.742Z,23.50
2023-01-30T18:35:25.711Z,25.40
2023-01-30T18:37:55.772Z,29.60
2023-01-30T18:40:25.739Z,39.70
2023-01-30T18:42:54.114Z,29.33
2023-01-30T18:45:22.468Z,29.67
2023-01-30T18:47:52.543Z,22.87
2023-01-30T18:50:21.425Z,28.10
2023-01-30T18:52:51.577Z,29.90
2023-01-30T18:55:20.640Z,26.40
2023-01-30T18:57:49.003Z,26.27
2023-01-30T19:00:19.638Z,32.67
2023-01-30T19:02:52.489Z,25.77
2023-01-30T19:05:21.628Z,29.90
2023-01-30T19:07:51.585Z,27.60
2023-01-30T19:10:20.600Z,19.83
2023-01-30T19:13:06.893Z,23.10
2023-01-30T19:15:36.659Z,24.47
2023-01-30T19:18:05.696Z,20.40
2023-01-30T19:20:34.588Z,20.10
2023-01-30T19:23:04.470Z,22.13
2023-01-30T19:25:33.085Z,18.60
2023-01-30T19:28:01.450Z,21.10
2023-01-30T19:30:29.921Z,25.00
2023-01-30T19:32:59.282Z,18.53
2023-01-30T19:35:27.730Z,18.27
2023-01-30T19:38:00.406Z,20.50
2023-01-30T19:40:30.406Z,24.53
2023-01-30T19:43:05.701Z,17.60
2023-01-30T19:45:40.108Z,18.37
2023-01-30T19:48:09.953Z,23.13
2023-01-30T19:50:39.110Z,25.60
2023-01-30T19:53:08.144Z,23.17
2023-01-30T19:55:37.984Z,22.00
2023-01-30T19:58:06.358Z,22.13
2023-01-30T20:00:34.964Z,21.93
2023-01-30T20:03:03.579Z,15.87
2023-01-30T20:05:32.231Z,25.70
2023-01-30T20:08:00.877Z,19.60
2023-01-30T20:10:29.355Z,17.73
2023-01-30T20:12:59.282Z,25.07
2023-01-30T20:15:27.785Z,26.03
2023-01-30T20:17:56.530Z,22.87
2023-01-30T20:20:24.939Z,14.17
2023-01-30T20:22:53.405Z,22.63
2023-01-30T20:25:21.897Z,18.47
2023-01-30T20:27:50.611Z,24.63
2023-01-30T20:30:20.911Z,23.03
2023-01-30T20:32:49.410Z,27.83
2023-01-30T20:35:18.551Z,28.10
2023-01-30T20:37:47.170Z,32.43
2023-01-30T20:40:17.140Z,26.43
2023-01-30T20:42:45.943Z,27.67
2023-01-30T20:45:14.469Z,26.23
2023-01-30T20:47:44.301Z,30.60
2023-01-30T20:50:14.126Z,33.10
2023-01-30T20:52:43.657Z,36.13
2023-01-30T20:55:12.348Z,30.50
2023-01-30T20:57:43.614Z,26.97
2023-01-30T21:00:13.064Z,34.03
2023-01-30T21:02:42.833Z,24.17
2023-01-30T21:05:12.781Z,34.73
2023-01-30T21:07:41.195Z,31.80
2023-01-30T21:10:10.631Z,28.67
2023-01-30T21:12:39.325Z,29.80
2023-01-30T21:15:08.926Z,35.70
2023-01-30T21:17:38.441Z,42.37
2023-01-30T21:20:07.492Z,37.83
2023-01-30T21:22:37.717Z,33.20
2023-01-30T21:25:06.904Z,33.17
2023-01-30T21:27:38.680Z,43.33
2023-01-30T21:30:09.258Z,45.73
2023-01-30T21:32:37.906Z,30.40
2023-01-30T21:35:07.365Z,41.57
2023-01-30T21:37:54.928Z,36.63
2023-01-30T21:40:41.011Z,30.63
2023-01-30T21:43:15.735Z,32.93
2023-01-30T21:45:44.480Z,38.60
2023-01-30T21:48:13.334Z,36.20
2023-01-30T21:50:41.981Z,30.60
2023-01-30T21:53:11.858Z,36.83
2023-01-30T21:55:40.443Z,32.00
2023-01-30T21:58:09.110Z,45.50
2023-01-30T22:00:37.787Z,29.13
2023-01-30T22:03:06.589Z,29.10
2023-01-30T22:05:36.740Z,32.50
2023-01-30T22:08:06.229Z,29.77
2023-01-30T22:10:36.383Z,32.27
2023-01-30T22:13:04.828Z,54.33
2023-01-30T22:15:33.901Z,36.77
2023-01-30T22:18:03.626Z,29.60
2023-01-30T22:20:32.049Z,30.20
2023-01-30T22:23:00.482Z,35.63
2023-01-30T22:25:29.033Z,33.37
2023-01-30T22:27:58.925Z,25.63
2023-01-30T22:30:27.399Z,36.13
2023-01-30T22:32:56.327Z,23.23
2023-01-30T22:35:24.738Z,40.83
2023-01-30T22:37:53.135Z,26.87
2023-01-30T22:40:21.497Z,42.50
2023-01-30T22:42:50.237Z,28.57
2023-01-30T22:45:20.334Z,24.13
2023-01-30T22:47:49.452Z,25.93
2023-01-30T22:50:18.566Z,32.30
2023-01-30T22:52:46.997Z,33.53
2023-01-30T22:55:15.681Z,25.50
2023-01-30T22:57:44.110Z,34.50
2023-01-30T23:00:13.204Z,36.93
2023-01-30T23:02:43.162Z,33.47
2023-01-30T23:05:12.223Z,33.60
2023-01-30T23:07:40.604Z,34.07
2023-01-30T23:10:10.397Z,25.10
2023-01-30T23:12:56.486Z,25.03
2023-01-30T23:15:24.879Z,34.83
2023-01-30T23:18:12.411Z,28.43
2023-01-30T23:20:40.888Z,25.10
2023-01-30T23:23:09.330Z,25.53
2023-01-30T23:25:41.259Z,35.10
2023-01-30T23:28:09.923Z,33.20
2023-01-30T23:30:39.097Z,28.03
2023-01-30T23:33:09.098Z,31.87
2023-01-30T23:35:37.803Z,28.97
2023-01-30T23:38:19.331Z,23.20
2023-01-30T23:40:49.143Z,33.90
2023-01-30T23:43:18.130Z,28.90
2023-01-30T23:45:46.605Z,20.90
2023-01-30T23:48:16.386Z,34.00
2023-01-30T23:50:44.677Z,27.67
2023-01-30T23:53:13.067Z,28.17
2023-01-30T23:55:41.373Z,35.67
2023-01-30T23:58:09.816Z,33.97
